createdAt,value
2018-07-31T00:00:53.150Z,999.87
2018-07-31T00:01:53.140Z,999.80
2018-07-31T00:02:53.142Z,999.85
2018-07-31T00:03:53.114Z,999.81
2018-07-31T00:04:53.116Z,999.82
2018-07-31T00:05:53.096Z,999.84
2018-07-31T00:06:53.088Z,999.85
2018-07-31T00:07:53.091Z,999.86
2018-07-31T00:08:53.100Z,999.85
2018-07-31T00:09:53.048Z,999.83
2018-07-31T00:10:53.038Z,999.81
2018-07-31T00:11:53.028Z,999.82
2018-07-31T00:12:53.039Z,999.81
2018-07-31T00:13:53.012Z,999.83
2018-07-31T00:14:53.010Z,999.80
2018-07-31T00:15:52.986Z,999.84
2018-07-31T00:16:52.979Z,999.86
2018-07-31T00:17:52.996Z,999.92
2018-07-31T00:18:52.953Z,999.91
2018-07-31T00:19:52.943Z,999.91
2018-07-31T00:20:52.928Z,999.86
2018-07-31T00:21:52.916Z,999.88
2018-07-31T00:22:52.924Z,999.85
2018-07-31T00:23:52.895Z,999.83
2018-07-31T00:24:52.896Z,999.84
2018-07-31T00:25:52.880Z,999.82
2018-07-31T00:26:52.873Z,999.85
2018-07-31T00:27:52.888Z,999.85
2018-07-31T00:28:52.851Z,999.88
2018-07-31T00:29:52.832Z,999.88
2018-07-31T00:30:52.839Z,999.82
2018-07-31T00:31:52.808Z,999.90
2018-07-31T00:32:52.821Z,999.82
2018-07-31T00:33:52.807Z,999.85
2018-07-31T00:34:52.775Z,999.84
2018-07-31T00:35:52.762Z,999.83
2018-07-31T00:36:52.757Z,999.83
2018-07-31T00:37:52.745Z,999.81
2018-07-31T00:38:52.761Z,999.82
2018-07-31T00:39:52.724Z,999.83
2018-07-31T00:40:52.707Z,999.81
2018-07-31T00:41:52.708Z,999.80
2018-07-31T00:42:52.687Z,999.78
2018-07-31T00:43:52.672Z,999.78
2018-07-31T00:44:52.690Z,999.77
2018-07-31T00:45:52.656Z,999.77
2018-07-31T00:46:52.645Z,999.77
2018-07-31T00:47:52.636Z,999.77
2018-07-31T00:48:52.617Z,999.74
2018-07-31T00:49:52.637Z,999.76
2018-07-31T00:50:52.601Z,999.73
2018-07-31T00:51:52.592Z,999.73
2018-07-31T00:52:52.575Z,999.75
2018-07-31T00:53:52.571Z,999.74
2018-07-31T00:54:52.557Z,999.70
2018-07-31T00:55:52.565Z,999.71
2018-07-31T00:56:52.541Z,999.71
2018-07-31T00:57:52.523Z,999.72
2018-07-31T00:58:52.518Z,999.69
2018-07-31T00:59:52.529Z,999.63
2018-07-31T01:00:52.513Z,999.66
2018-07-31T01:01:52.479Z,999.61
2018-07-31T01:02:52.467Z,999.62
2018-07-31T01:03:52.457Z,999.60
2018-07-31T01:04:52.451Z,999.58
2018-07-31T01:05:52.436Z,999.61
2018-07-31T01:06:52.443Z,999.62
2018-07-31T01:07:52.415Z,999.54
2018-07-31T01:08:52.420Z,999.59
2018-07-31T01:09:52.393Z,999.57
2018-07-31T01:10:52.412Z,999.53
2018-07-31T01:11:52.403Z,999.53
2018-07-31T01:12:52.357Z,999.54
2018-07-31T01:13:52.345Z,999.50
2018-07-31T01:14:52.337Z,999.53
2018-07-31T01:15:52.323Z,999.55
2018-07-31T01:16:52.320Z,999.47
2018-07-31T01:17:52.329Z,999.53
2018-07-31T01:18:52.296Z,999.56
2018-07-31T01:19:52.324Z,999.55
2018-07-31T01:20:52.278Z,999.56
2018-07-31T01:21:52.261Z,999.55
2018-07-31T01:22:52.272Z,999.55
2018-07-31T01:23:52.248Z,999.53
2018-07-31T01:24:52.227Z,999.55
2018-07-31T01:25:52.227Z,999.57
2018-07-31T01:26:52.208Z,999.61
2018-07-31T01:27:52.215Z,999.67
2018-07-31T01:28:52.192Z,999.64
2018-07-31T01:29:52.179Z,999.66
2018-07-31T01:30:52.169Z,999.64
2018-07-31T01:31:52.160Z,999.68
2018-07-31T01:32:52.160Z,999.62
2018-07-31T01:33:52.132Z,999.63
2018-07-31T01:34:52.137Z,999.62
2018-07-31T01:35:52.108Z,999.56
2018-07-31T01:36:52.116Z,999.58
2018-07-31T01:37:52.113Z,999.63
2018-07-31T01:38:52.078Z,999.59
2018-07-31T01:39:52.066Z,999.58
2018-07-31T01:40:52.062Z,999.59
2018-07-31T01:41:52.049Z,999.56
2018-07-31T01:42:52.057Z,999.57
2018-07-31T01:43:52.029Z,999.58
2018-07-31T01:44:52.012Z,999.57
2018-07-31T01:45:52.028Z,999.55
2018-07-31T01:46:51.994Z,999.55
2018-07-31T01:47:51.999Z,999.62
2018-07-31T01:48:51.977Z,999.63
2018-07-31T01:49:51.965Z,999.57
2018-07-31T01:50:51.955Z,999.55
2018-07-31T01:51:51.942Z,999.55
2018-07-31T01:52:51.948Z,999.55
2018-07-31T01:53:51.919Z,999.59
2018-07-31T01:54:51.912Z,999.51
2018-07-31T01:55:51.909Z,999.58
2018-07-31T01:56:51.885Z,999.50
2018-07-31T01:57:51.892Z,999.49
2018-07-31T01:58:51.863Z,999.51
2018-07-31T01:59:51.854Z,999.53
2018-07-31T02:00:51.846Z,999.50
2018-07-31T02:01:51.840Z,999.54
2018-07-31T02:02:51.850Z,999.52
2018-07-31T02:03:51.815Z,999.57
2018-07-31T02:04:51.804Z,999.53
2018-07-31T02:05:51.790Z,999.51
2018-07-31T02:06:51.776Z,999.52
2018-07-31T02:07:51.789Z,999.54
2018-07-31T02:08:51.761Z,999.47
2018-07-31T02:09:51.754Z,999.51
2018-07-31T02:10:51.735Z,999.52
2018-07-31T02:11:51.727Z,999.49
2018-07-31T02:12:51.738Z,999.51
2018-07-31T02:13:51.710Z,999.53
2018-07-31T02:14:51.717Z,999.53
2018-07-31T02:15:51.691Z,999.55
2018-07-31T02:16:51.673Z,999.56
2018-07-31T02:17:51.689Z,999.56
2018-07-31T02:18:51.650Z,999.56
2018-07-31T02:19:51.642Z,999.57
2018-07-31T02:20:51.634Z,999.55
2018-07-31T02:21:51.633Z,999.56
2018-07-31T02:22:51.617Z,999.58
2018-07-31T02:23:51.620Z,999.58
2018-07-31T02:24:51.589Z,999.57
2018-07-31T02:25:51.575Z,999.59
2018-07-31T02:26:51.573Z,999.65
2018-07-31T02:27:51.565Z,999.63
2018-07-31T02:28:51.575Z,999.65
2018-07-31T02:29:51.536Z,999.65
2018-07-31T02:30:51.524Z,999.61
2018-07-31T02:31:51.522Z,999.62
2018-07-31T02:32:51.508Z,999.63
2018-07-31T02:33:51.498Z,999.68
2018-07-31T02:34:51.504Z,999.64
2018-07-31T02:35:51.473Z,999.64
2018-07-31T02:36:51.461Z,999.66
2018-07-31T02:37:51.447Z,999.64
2018-07-31T02:38:51.440Z,999.62
2018-07-31T02:39:51.448Z,999.65
2018-07-31T02:40:51.420Z,999.64
2018-07-31T02:41:51.411Z,999.62
2018-07-31T02:42:51.396Z,999.63
2018-07-31T02:43:51.386Z,999.66
2018-07-31T02:44:51.397Z,999.59
2018-07-31T02:45:51.368Z,999.62
2018-07-31T02:46:51.404Z,999.61
2018-07-31T02:47:51.345Z,999.65
2018-07-31T02:48:51.340Z,999.63
2018-07-31T02:49:51.350Z,999.64
2018-07-31T02:50:51.308Z,999.62
2018-07-31T02:51:51.300Z,999.60
2018-07-31T02:52:51.290Z,999.61
2018-07-31T02:53:51.283Z,999.64
2018-07-31T02:54:51.272Z,999.57
2018-07-31T02:55:51.287Z,999.60
2018-07-31T02:56:51.246Z,999.58
2018-07-31T02:57:51.232Z,999.54
2018-07-31T02:58:51.237Z,999.55
2018-07-31T02:59:51.220Z,999.59
2018-07-31T03:00:51.224Z,999.56
2018-07-31T03:01:51.192Z,999.61
2018-07-31T03:02:51.180Z,999.58
2018-07-31T03:03:51.173Z,999.60
2018-07-31T03:04:51.164Z,999.62
2018-07-31T03:05:51.184Z,999.59
2018-07-31T03:06:51.144Z,999.62
2018-07-31T03:07:51.132Z,999.60
2018-07-31T03:08:51.118Z,999.59
2018-07-31T03:09:51.118Z,999.59
2018-07-31T03:10:51.095Z,999.60
2018-07-31T03:11:51.108Z,999.64
2018-07-31T03:12:51.079Z,999.61
2018-07-31T03:13:51.070Z,999.62
2018-07-31T03:14:51.057Z,999.56
2018-07-31T03:15:51.045Z,999.58
2018-07-31T03:16:51.067Z,999.58
2018-07-31T03:17:51.026Z,999.59
2018-07-31T03:18:51.018Z,999.59
2018-07-31T03:19:51.006Z,999.59
2018-07-31T03:20:50.993Z,999.59
2018-07-31T03:21:50.977Z,999.61
2018-07-31T03:22:50.985Z,999.63
2018-07-31T03:23:50.957Z,999.66
2018-07-31T03:24:50.951Z,999.69
2018-07-31T03:25:50.948Z,999.70
2018-07-31T03:26:50.930Z,999.75
2018-07-31T03:27:50.965Z,999.72
2018-07-31T03:28:50.918Z,999.71
2018-07-31T03:29:50.891Z,999.76
2018-07-31T03:30:50.889Z,999.71
2018-07-31T03:31:50.874Z,999.75
2018-07-31T03:32:50.867Z,999.70
2018-07-31T03:33:50.875Z,999.77
2018-07-31T03:34:50.837Z,999.70
2018-07-31T03:35:50.829Z,999.70
2018-07-31T03:36:50.821Z,999.71
2018-07-31T03:37:50.811Z,999.71
2018-07-31T03:38:50.799Z,999.69
2018-07-31T03:39:50.808Z,999.71
2018-07-31T03:40:50.773Z,999.72
2018-07-31T03:41:50.764Z,999.68
2018-07-31T03:42:50.750Z,999.71
2018-07-31T03:43:50.760Z,999.69
2018-07-31T03:44:50.758Z,999.75
2018-07-31T03:45:50.723Z,999.74
2018-07-31T03:46:50.706Z,999.77
2018-07-31T03:47:50.699Z,999.77
2018-07-31T03:48:50.692Z,999.81
2018-07-31T03:49:50.712Z,999.86
2018-07-31T03:50:50.670Z,999.85
2018-07-31T03:51:50.659Z,999.85
2018-07-31T03:52:50.644Z,999.83
2018-07-31T03:53:51.266Z,999.85
2018-07-31T03:54:50.648Z,999.84
2018-07-31T03:55:50.611Z,999.86
2018-07-31T03:56:50.606Z,999.86
2018-07-31T03:57:50.593Z,999.86
2018-07-31T03:58:50.587Z,999.87
2018-07-31T03:59:50.569Z,999.91
2018-07-31T04:00:50.578Z,999.90
2018-07-31T04:01:50.554Z,999.90
2018-07-31T04:02:50.550Z,999.91
2018-07-31T04:03:50.526Z,999.89
2018-07-31T04:04:50.513Z,999.88
2018-07-31T04:05:50.519Z,999.91
2018-07-31T04:06:50.497Z,999.92
2018-07-31T04:07:50.482Z,999.91
2018-07-31T04:08:50.472Z,999.91
2018-07-31T04:09:50.469Z,999.93
2018-07-31T04:10:50.482Z,999.87
2018-07-31T04:11:50.442Z,999.94
2018-07-31T04:12:50.428Z,999.89
2018-07-31T04:13:50.415Z,999.93
2018-07-31T04:14:50.413Z,999.91
2018-07-31T04:15:50.422Z,999.89
2018-07-31T04:16:50.480Z,999.93
2018-07-31T04:17:50.392Z,999.90
2018-07-31T04:18:50.361Z,999.90
2018-07-31T04:19:50.362Z,999.89
2018-07-31T04:20:50.373Z,999.92
2018-07-31T04:21:50.373Z,999.90
2018-07-31T04:22:50.322Z,999.90
2018-07-31T04:23:50.315Z,999.90
2018-07-31T04:24:50.298Z,999.92
2018-07-31T04:25:50.284Z,999.95
2018-07-31T04:26:50.315Z,999.95
2018-07-31T04:27:50.312Z,999.97
2018-07-31T04:28:50.304Z,999.90
2018-07-31T04:29:50.301Z,999.88
2018-07-31T04:30:50.297Z,999.91
2018-07-31T04:31:50.284Z,999.87
2018-07-31T04:32:50.301Z,999.92
2018-07-31T04:33:50.300Z,999.91
2018-07-31T04:34:50.246Z,999.92
2018-07-31T04:35:50.271Z,999.92
2018-07-31T04:36:50.171Z,999.94
2018-07-31T04:37:50.173Z,999.95
2018-07-31T04:38:50.143Z,999.97
2018-07-31T04:39:50.139Z,999.92
2018-07-31T04:40:50.138Z,999.95
2018-07-31T04:41:50.117Z,999.95
2018-07-31T04:42:50.129Z,999.95
2018-07-31T04:43:50.096Z,999.93
2018-07-31T04:44:50.090Z,999.89
2018-07-31T04:45:50.067Z,999.92
2018-07-31T04:46:50.060Z,999.90
2018-07-31T04:47:50.080Z,999.95
2018-07-31T04:48:50.051Z,999.93
2018-07-31T04:49:50.048Z,999.99
2018-07-31T04:50:50.023Z,1000.00
2018-07-31T04:51:50.011Z,999.94
2018-07-31T04:52:50.016Z,999.94
2018-07-31T04:53:49.985Z,999.94
2018-07-31T04:54:49.981Z,1000.00
2018-07-31T04:55:49.964Z,999.98
2018-07-31T04:56:50.013Z,999.96
2018-07-31T04:57:49.961Z,999.95
2018-07-31T04:58:49.939Z,999.97
2018-07-31T04:59:49.919Z,999.98
2018-07-31T05:00:49.954Z,1000.07
2018-07-31T05:01:49.903Z,1000.00
2018-07-31T05:02:49.914Z,1000.07
2018-07-31T05:03:49.884Z,1000.04
2018-07-31T05:04:49.866Z,1000.05
2018-07-31T05:05:49.871Z,999.97
2018-07-31T05:06:49.848Z,1000.01
2018-07-31T05:07:49.881Z,1000.00
2018-07-31T05:08:49.858Z,1000.01
2018-07-31T05:09:49.826Z,1000.00
2018-07-31T05:10:49.803Z,1000.00
2018-07-31T05:11:49.792Z,999.97
2018-07-31T05:12:49.801Z,999.96
2018-07-31T05:13:49.794Z,999.97
2018-07-31T05:14:49.763Z,999.95
2018-07-31T05:15:49.750Z,999.96
2018-07-31T05:16:49.735Z,999.98
2018-07-31T05:17:49.742Z,999.94
2018-07-31T05:18:49.711Z,999.99
2018-07-31T05:19:49.711Z,999.99
2018-07-31T05:20:49.697Z,1000.01
2018-07-31T05:21:49.694Z,1000.00
2018-07-31T05:22:49.695Z,1000.00
2018-07-31T05:23:49.663Z,1000.02
2018-07-31T05:24:49.650Z,1000.07
2018-07-31T05:25:49.641Z,1000.05
2018-07-31T05:26:49.694Z,1000.08
2018-07-31T05:27:49.637Z,1000.07
2018-07-31T05:28:49.605Z,1000.10
2018-07-31T05:29:49.591Z,1000.12
2018-07-31T05:30:49.993Z,1000.10
2018-07-31T05:31:49.582Z,1000.07
2018-07-31T05:32:50.226Z,1000.03
2018-07-31T05:33:49.592Z,1000.04
2018-07-31T05:34:49.565Z,1000.07
2018-07-31T05:35:49.531Z,1000.04
2018-07-31T05:36:49.534Z,1000.05
2018-07-31T05:37:49.506Z,1000.04
2018-07-31T05:38:49.519Z,1000.06
2018-07-31T05:39:49.488Z,1000.06
2018-07-31T05:40:49.489Z,1000.07
2018-07-31T05:41:49.462Z,1000.03
2018-07-31T05:42:49.498Z,1000.08
2018-07-31T05:43:49.714Z,1000.06
2018-07-31T05:44:49.443Z,1000.11
2018-07-31T05:45:49.425Z,1000.12
2018-07-31T05:46:49.416Z,1000.12
2018-07-31T05:47:49.430Z,1000.15
2018-07-31T05:48:49.386Z,1000.18
2018-07-31T05:49:49.373Z,1000.15
2018-07-31T05:50:49.368Z,1000.19
2018-07-31T05:51:49.406Z,1000.23
2018-07-31T05:52:49.346Z,1000.23
2018-07-31T05:53:49.356Z,1000.23
2018-07-31T05:54:49.357Z,1000.20
2018-07-31T05:55:49.377Z,1000.19
2018-07-31T05:56:49.304Z,1000.21
2018-07-31T05:57:49.299Z,1000.20
2018-07-31T05:58:49.300Z,1000.24
2018-07-31T05:59:49.276Z,1000.23
2018-07-31T06:00:49.257Z,1000.22
2018-07-31T06:01:49.242Z,1000.26
2018-07-31T06:02:49.237Z,1000.24
2018-07-31T06:03:49.251Z,1000.27
2018-07-31T06:04:49.214Z,1000.26
2018-07-31T06:05:49.207Z,1000.24
2018-07-31T06:06:49.195Z,1000.24
2018-07-31T06:07:49.183Z,1000.26
2018-07-31T06:08:49.167Z,1000.24
2018-07-31T06:09:49.176Z,1000.25
2018-07-31T06:10:49.152Z,1000.29
2018-07-31T06:11:49.140Z,1000.28
2018-07-31T06:12:49.126Z,1000.28
2018-07-31T06:13:49.119Z,1000.26
2018-07-31T06:14:49.130Z,1000.28
2018-07-31T06:15:49.106Z,1000.26
2018-07-31T06:16:49.085Z,1000.29
2018-07-31T06:17:49.076Z,1000.25
2018-07-31T06:18:49.067Z,1000.29
2018-07-31T06:19:49.053Z,1000.25
2018-07-31T06:20:49.068Z,1000.29
2018-07-31T06:21:49.032Z,1000.27
2018-07-31T06:22:49.049Z,1000.29
2018-07-31T06:23:49.008Z,1000.29
2018-07-31T06:24:49.004Z,1000.31
2018-07-31T06:25:48.990Z,1000.29
2018-07-31T06:26:48.994Z,1000.29
2018-07-31T06:27:48.964Z,1000.30
2018-07-31T06:28:48.961Z,1000.33
2018-07-31T06:29:48.947Z,1000.37
2018-07-31T06:30:48.940Z,1000.34
2018-07-31T06:31:48.943Z,1000.40
2018-07-31T06:32:48.943Z,1000.40
2018-07-31T06:33:48.901Z,1000.44
2018-07-31T06:34:48.890Z,1000.47
2018-07-31T06:35:48.879Z,1000.41
2018-07-31T06:36:48.895Z,1000.43
2018-07-31T06:37:48.877Z,1000.48
2018-07-31T06:38:48.851Z,1000.49
2018-07-31T06:39:48.843Z,1000.44
2018-07-31T06:40:48.854Z,1000.50
2018-07-31T06:41:48.858Z,1000.47
2018-07-31T06:42:48.809Z,1000.50
2018-07-31T06:43:48.795Z,1000.52
2018-07-31T06:44:48.783Z,1000.55
2018-07-31T06:45:48.780Z,1000.62
2018-07-31T06:46:48.758Z,1000.60
2018-07-31T06:47:48.774Z,1000.62
2018-07-31T06:48:48.742Z,1000.63
2018-07-31T06:49:48.757Z,1000.65
2018-07-31T06:50:48.722Z,1000.61
2018-07-31T06:51:48.710Z,1000.61
2018-07-31T06:52:48.728Z,1000.58
2018-07-31T06:53:48.684Z,1000.64
2018-07-31T06:54:48.673Z,1000.58
2018-07-31T06:55:48.670Z,1000.64
2018-07-31T06:56:48.717Z,1000.67
2018-07-31T06:57:48.654Z,1000.61
2018-07-31T06:58:48.662Z,1000.68
2018-07-31T06:59:48.631Z,1000.70
2018-07-31T07:00:48.627Z,1000.68
2018-07-31T07:01:48.605Z,1000.73
2018-07-31T07:02:48.621Z,1000.71
2018-07-31T07:03:48.582Z,1000.73
2018-07-31T07:04:48.569Z,1000.72
2018-07-31T07:05:48.556Z,1000.73
2018-07-31T07:06:48.547Z,1000.75
2018-07-31T07:07:48.538Z,1000.73
2018-07-31T07:08:48.552Z,1000.75
2018-07-31T07:09:48.522Z,1000.75
2018-07-31T07:10:48.512Z,1000.76
2018-07-31T07:11:48.497Z,1000.75
2018-07-31T07:12:48.486Z,1000.73
2018-07-31T07:13:48.494Z,1000.70
2018-07-31T07:14:48.472Z,1000.72
2018-07-31T07:15:48.474Z,1000.74
2018-07-31T07:16:48.442Z,1000.73
2018-07-31T07:17:48.430Z,1000.73
2018-07-31T07:18:48.448Z,1000.78
2018-07-31T07:19:48.420Z,1000.78
2018-07-31T07:20:48.404Z,1000.75
2018-07-31T07:21:48.397Z,1000.76
2018-07-31T07:22:48.385Z,1000.77
2018-07-31T07:23:48.383Z,1000.81
2018-07-31T07:24:48.381Z,1000.83
2018-07-31T07:25:48.358Z,1000.80
2018-07-31T07:26:48.366Z,1000.82
2018-07-31T07:27:48.365Z,1000.83
2018-07-31T07:28:48.335Z,1000.85
2018-07-31T07:29:48.393Z,1000.84
2018-07-31T07:30:48.308Z,1000.85
2018-07-31T07:31:48.286Z,1000.86
2018-07-31T07:32:48.278Z,1000.81
2018-07-31T07:33:48.333Z,1000.84
2018-07-31T07:34:48.285Z,1000.79
2018-07-31T07:35:48.248Z,1000.79
2018-07-31T07:36:48.238Z,1000.79
2018-07-31T07:37:48.310Z,1000.80
2018-07-31T07:38:48.216Z,1000.80
2018-07-31T07:39:48.239Z,1000.75
2018-07-31T07:40:48.223Z,1000.77
2018-07-31T07:41:48.192Z,1000.78
2018-07-31T07:42:48.176Z,1000.73
2018-07-31T07:43:48.164Z,1000.73
2018-07-31T07:44:48.151Z,1000.75
2018-07-31T07:45:48.159Z,1000.72
2018-07-31T07:46:48.187Z,1000.69
2018-07-31T07:47:48.179Z,1000.77
2018-07-31T07:48:48.110Z,1000.73
2018-07-31T07:49:48.108Z,1000.73
2018-07-31T07:50:48.117Z,1000.74
2018-07-31T07:51:48.078Z,1000.79
2018-07-31T07:52:48.070Z,1000.78
2018-07-31T07:53:48.095Z,1000.73
2018-07-31T07:54:48.052Z,1000.75
2018-07-31T07:55:48.058Z,1000.71
2018-07-31T07:56:48.034Z,1000.77
2018-07-31T07:57:48.018Z,1000.81
2018-07-31T07:58:48.020Z,1000.81
2018-07-31T07:59:48.005Z,1000.81
2018-07-31T08:00:48.015Z,1000.84
2018-07-31T08:01:48.028Z,1000.84
2018-07-31T08:02:47.962Z,1000.87
2018-07-31T08:03:47.993Z,1000.88
2018-07-31T08:04:47.974Z,1000.91
2018-07-31T08:05:47.968Z,1000.89
2018-07-31T08:06:47.947Z,1000.86
2018-07-31T08:07:47.929Z,1000.87
2018-07-31T08:08:47.916Z,1000.92
2018-07-31T08:09:47.911Z,1000.85
2018-07-31T08:10:47.898Z,1000.83
2018-07-31T08:11:47.868Z,1000.79
2018-07-31T08:12:47.873Z,1000.77
2018-07-31T08:13:47.874Z,1000.79
2018-07-31T08:14:47.847Z,1000.75
2018-07-31T08:15:47.866Z,1000.77
2018-07-31T08:16:47.835Z,1000.76
2018-07-31T08:17:47.804Z,1000.74
2018-07-31T08:18:47.809Z,1000.79
2018-07-31T08:19:47.798Z,1000.83
2018-07-31T08:20:47.804Z,1000.82
2018-07-31T08:21:47.764Z,1000.79
2018-07-31T08:22:47.758Z,1000.83
2018-07-31T08:23:47.750Z,1000.87
2018-07-31T08:24:47.735Z,1000.80
2018-07-31T08:25:47.728Z,1000.74
2018-07-31T08:26:47.748Z,1000.80
2018-07-31T08:27:47.759Z,1000.80
2018-07-31T08:28:47.711Z,1001.00
2018-07-31T08:29:47.679Z,1001.03
2018-07-31T08:30:47.669Z,1000.83
2018-07-31T08:31:47.679Z,1000.72
2018-07-31T08:32:47.676Z,1000.65
2018-07-31T08:33:47.645Z,1000.68
2018-07-31T08:34:47.628Z,1000.90
2018-07-31T08:35:47.620Z,1000.64
2018-07-31T08:36:47.636Z,1000.96
2018-07-31T08:37:47.610Z,1000.90
2018-07-31T08:38:47.594Z,1000.97
2018-07-31T08:39:47.584Z,1000.96
2018-07-31T08:40:47.569Z,1001.01
2018-07-31T08:41:47.575Z,1000.95
2018-07-31T08:42:47.555Z,1000.94
2018-07-31T08:43:47.558Z,1000.90
2018-07-31T08:44:47.532Z,1000.92
2018-07-31T08:45:47.523Z,1000.86
2018-07-31T08:46:47.533Z,1000.86
2018-07-31T08:47:47.507Z,1000.88
2018-07-31T08:48:47.489Z,1000.87
2018-07-31T08:49:47.476Z,1000.84
2018-07-31T08:50:47.474Z,1000.89
2018-07-31T08:51:47.480Z,1000.89
2018-07-31T08:52:47.449Z,1000.90
2018-07-31T08:53:47.436Z,1000.91
2018-07-31T08:54:47.427Z,1000.91
2018-07-31T08:55:47.467Z,1001.00
2018-07-31T08:56:47.433Z,1001.01
2018-07-31T08:57:47.408Z,1001.02
2018-07-31T08:58:47.391Z,1001.01
2018-07-31T08:59:47.383Z,1001.01
2018-07-31T09:00:47.368Z,1001.00
2018-07-31T09:01:47.387Z,1001.05
2018-07-31T09:02:47.405Z,1001.05
2018-07-31T09:03:47.337Z,1001.03
2018-07-31T09:04:47.343Z,1001.02
2018-07-31T09:05:47.324Z,1001.08
2018-07-31T09:06:47.332Z,1001.11
2018-07-31T09:07:47.319Z,1001.08
2018-07-31T09:08:47.365Z,1001.16
2018-07-31T09:09:47.284Z,1001.15
2018-07-31T09:10:47.273Z,1001.08
2018-07-31T09:11:47.285Z,1001.12
2018-07-31T09:12:47.252Z,1001.17
2018-07-31T09:13:47.243Z,1001.04
2018-07-31T09:14:47.237Z,1000.94
2018-07-31T09:15:47.222Z,1001.00
2018-07-31T09:16:47.240Z,1000.94
2018-07-31T09:17:47.207Z,1000.91
2018-07-31T09:18:47.197Z,1001.04
2018-07-31T09:19:47.194Z,1001.04
2018-07-31T09:20:47.176Z,1000.99
2018-07-31T09:21:47.183Z,1001.06
2018-07-31T09:22:47.156Z,1001.03
2018-07-31T09:23:47.149Z,1001.11
2018-07-31T09:24:47.198Z,1001.06
2018-07-31T09:25:47.134Z,1001.15
2018-07-31T09:26:47.162Z,1001.20
2018-07-31T09:27:47.113Z,1001.29
2018-07-31T09:28:47.102Z,1001.37
2018-07-31T09:29:47.092Z,1001.43
2018-07-31T09:30:47.123Z,1001.46
2018-07-31T09:31:47.092Z,1001.30
2018-07-31T09:32:47.057Z,1001.35
2018-07-31T09:33:47.048Z,1001.24
2018-07-31T09:34:47.069Z,1001.35
2018-07-31T09:35:47.028Z,1001.22
2018-07-31T09:36:47.053Z,1001.15
2018-07-31T09:37:47.016Z,1001.07
2018-07-31T09:38:47.001Z,1001.03
2018-07-31T09:39:46.990Z,1001.00
2018-07-31T09:40:46.988Z,1001.01
2018-07-31T09:41:46.995Z,1001.05
2018-07-31T09:42:47.056Z,1000.99
2018-07-31T09:43:46.957Z,1001.04
2018-07-31T09:44:46.940Z,1000.99
2018-07-31T09:45:46.932Z,1001.04
2018-07-31T09:46:46.924Z,1001.12
2018-07-31T09:47:46.962Z,1001.12
2018-07-31T09:48:46.947Z,1001.06
2018-07-31T09:49:46.900Z,1001.14
2018-07-31T09:50:46.897Z,1001.08
2018-07-31T09:51:46.923Z,1001.09
2018-07-31T09:52:46.867Z,1001.10
2018-07-31T09:53:46.890Z,1001.15
2018-07-31T09:54:46.897Z,1001.19
2018-07-31T09:55:46.859Z,1001.09
2018-07-31T09:56:46.869Z,1001.16
2018-07-31T09:57:46.864Z,1001.20
2018-07-31T09:58:46.803Z,1001.22
2018-07-31T09:59:46.790Z,1001.19
2018-07-31T10:00:46.790Z,1001.21
2018-07-31T10:01:46.775Z,1001.19
2018-07-31T10:02:46.807Z,1001.23
2018-07-31T10:03:46.759Z,1001.14
2018-07-31T10:04:46.756Z,1001.18
2018-07-31T10:05:46.745Z,1001.07
2018-07-31T10:06:46.723Z,1001.15
2018-07-31T10:07:46.729Z,1001.10
2018-07-31T10:08:46.709Z,1001.12
2018-07-31T10:09:46.722Z,1001.11
2018-07-31T10:10:46.684Z,1001.09
2018-07-31T10:11:46.734Z,1001.16
2018-07-31T10:12:46.687Z,1001.13
2018-07-31T10:13:46.656Z,1001.12
2018-07-31T10:14:46.647Z,1001.11
2018-07-31T10:15:46.640Z,1001.13
2018-07-31T10:16:46.627Z,1001.15
2018-07-31T10:17:46.692Z,1001.16
2018-07-31T10:18:46.635Z,1001.16
2018-07-31T10:19:46.592Z,1001.13
2018-07-31T10:20:46.589Z,1001.15
2018-07-31T10:21:46.575Z,1001.17
2018-07-31T10:22:46.585Z,1001.14
2018-07-31T10:23:46.558Z,1001.13
2018-07-31T10:24:46.545Z,1001.08
2018-07-31T10:25:46.533Z,1001.10
2018-07-31T10:26:46.527Z,1001.11
2018-07-31T10:27:46.538Z,1001.17
2018-07-31T10:28:46.501Z,1001.13
2018-07-31T10:29:46.506Z,1001.11
2018-07-31T10:30:46.596Z,1001.14
2018-07-31T10:31:46.477Z,1001.15
2018-07-31T10:32:46.487Z,1001.17
2018-07-31T10:33:46.476Z,1001.17
2018-07-31T10:34:46.445Z,1001.21
2018-07-31T10:35:46.441Z,1001.20
2018-07-31T10:36:46.425Z,1001.28
2018-07-31T10:37:46.455Z,1001.19
2018-07-31T10:38:46.409Z,1001.21
2018-07-31T10:39:46.397Z,1001.13
2018-07-31T10:40:46.394Z,1001.11
2018-07-31T10:41:46.375Z,1001.15
2018-07-31T10:42:46.504Z,1001.16
2018-07-31T10:43:46.385Z,1001.15
2018-07-31T10:44:46.393Z,1001.16
2018-07-31T10:45:46.335Z,1001.24
2018-07-31T10:46:46.336Z,1001.18
2018-07-31T10:47:46.348Z,1001.24
2018-07-31T10:48:46.309Z,1001.14
2018-07-31T10:49:46.305Z,1001.16
2018-07-31T10:50:46.284Z,1001.16
2018-07-31T10:51:46.288Z,1001.19
2018-07-31T10:52:46.315Z,1001.18
2018-07-31T10:53:46.262Z,1001.26
2018-07-31T10:54:46.244Z,1001.22
2018-07-31T10:55:46.236Z,1001.19
2018-07-31T10:56:46.220Z,1001.12
2018-07-31T10:57:46.212Z,1001.13
2018-07-31T10:58:46.249Z,1001.05
2018-07-31T10:59:46.220Z,1001.15
2018-07-31T11:00:46.182Z,1001.16
2018-07-31T11:01:46.172Z,1001.10
2018-07-31T11:02:46.195Z,1001.16
2018-07-31T11:03:46.191Z,1001.19
2018-07-31T11:04:46.150Z,1001.13
2018-07-31T11:05:46.135Z,1001.17
2018-07-31T11:06:46.127Z,1001.21
2018-07-31T11:07:46.117Z,1001.31
2018-07-31T11:08:46.120Z,1001.27
2018-07-31T11:09:46.092Z,1001.20
2018-07-31T11:10:46.082Z,1001.24
2018-07-31T11:11:46.075Z,1001.29
2018-07-31T11:12:46.097Z,1001.37
2018-07-31T11:13:46.100Z,1001.30
2018-07-31T11:14:46.041Z,1001.33
2018-07-31T11:15:46.034Z,1001.47
2018-07-31T11:16:46.026Z,1001.59
2018-07-31T11:17:46.024Z,1001.61
2018-07-31T11:18:46.072Z,1001.87
2018-07-31T11:19:46.016Z,1001.96
2018-07-31T11:20:45.980Z,1001.93
2018-07-31T11:21:45.978Z,1001.95
2018-07-31T11:22:45.965Z,1002.11
2018-07-31T11:23:45.951Z,1002.20
2018-07-31T11:24:45.973Z,1002.28
2018-07-31T11:25:45.947Z,1002.34
2018-07-31T11:26:45.930Z,1002.34
2018-07-31T11:27:45.928Z,1002.37
2018-07-31T11:28:46.023Z,1002.42
2018-07-31T11:29:45.932Z,1002.41
2018-07-31T11:30:45.895Z,1002.45
2018-07-31T11:31:45.890Z,1001.73
2018-07-31T11:32:45.877Z,1002.41
2018-07-31T11:33:45.916Z,1001.79
2018-07-31T11:34:45.874Z,1001.76
2018-07-31T11:35:45.913Z,1001.66
2018-07-31T11:36:45.869Z,1001.62
2018-07-31T11:37:45.834Z,1001.61
2018-07-31T11:38:45.828Z,1001.64
2018-07-31T11:39:45.822Z,1001.79
2018-07-31T11:40:45.825Z,1002.35
2018-07-31T11:41:45.802Z,1001.74
2018-07-31T11:42:45.788Z,1001.90
2018-07-31T11:43:45.777Z,1001.58
2018-07-31T11:44:45.774Z,1001.46
2018-07-31T11:45:45.782Z,1001.52
2018-07-31T11:46:45.761Z,1001.50
2018-07-31T11:47:45.744Z,1001.49
2018-07-31T11:48:45.737Z,1001.49
2018-07-31T11:49:45.757Z,1001.51
2018-07-31T11:50:45.734Z,1001.44
2018-07-31T11:51:45.708Z,1001.42
2018-07-31T11:52:45.691Z,1002.05
2018-07-31T11:53:45.683Z,1002.11
2018-07-31T11:54:45.677Z,1001.88
2018-07-31T11:55:45.720Z,1002.24
2018-07-31T11:56:45.741Z,1002.25
2018-07-31T11:57:45.654Z,1002.28
2018-07-31T11:58:45.642Z,1002.31
2018-07-31T11:59:45.633Z,1001.66
2018-07-31T12:00:45.618Z,1002.26
2018-07-31T12:01:45.648Z,1001.70
2018-07-31T12:02:45.615Z,1002.14
2018-07-31T12:03:45.598Z,1002.22
2018-07-31T12:04:45.583Z,1001.62
2018-07-31T12:05:45.577Z,1002.15
2018-07-31T12:06:45.592Z,1001.61
2018-07-31T12:07:45.556Z,1001.56
2018-07-31T12:08:45.555Z,1001.47
2018-07-31T12:09:45.543Z,1002.17
2018-07-31T12:10:45.535Z,1002.26
2018-07-31T12:11:45.594Z,1002.24
2018-07-31T12:12:45.513Z,1002.25
2018-07-31T12:13:45.508Z,1002.31
2018-07-31T12:14:45.515Z,1002.42
2018-07-31T12:15:45.489Z,1002.47